sensor_id;sensor_type;location;lat;lon;timestamp;temperature;humidity
57660;DHT22;43485;45.680;15.702;2023-07-02T00:00:09;20.30;71.70
57660;DHT22;43485;45.680;15.702;2023-07-02T00:02:36;20.30;71.40
57660;DHT22;43485;45.680;15.702;2023-07-02T00:05:03;20.40;71.40
57660;DHT22;43485;45.680;15.702;2023-07-02T00:07:30;20.40;71.30
57660;DHT22;43485;45.680;15.702;2023-07-02T00:09:56;20.40;71.40
57660;DHT22;43485;45.680;15.702;2023-07-02T00:12:22;20.30;71.40
57660;DHT22;43485;45.680;15.702;2023-07-02T00:14:48;20.40;71.60
57660;DHT22;43485;45.680;15.702;2023-07-02T00:17:18;20.40;71.60
57660;DHT22;43485;45.680;15.702;2023-07-02T00:19:44;20.40;71.40
57660;DHT22;43485;45.680;15.702;2023-07-02T00:22:12;20.40;71.60
57660;DHT22;43485;45.680;15.702;2023-07-02T00:24:38;20.40;71.60
57660;DHT22;43485;45.680;15.702;2023-07-02T00:27:04;20.40;71.60
57660;DHT22;43485;45.680;15.702;2023-07-02T00:29:30;20.40;71.60
57660;DHT22;43485;45.680;15.702;2023-07-02T00:31:56;20.40;71.50
57660;DHT22;43485;45.680;15.702;2023-07-02T00:34:22;20.40;71.70
57660;DHT22;43485;45.680;15.702;2023-07-02T00:36:48;20.40;71.60
57660;DHT22;43485;45.680;15.702;2023-07-02T00:39:14;20.40;71.50
57660;DHT22;43485;45.680;15.702;2023-07-02T00:41:43;20.40;71.60
57660;DHT22;43485;45.680;15.702;2023-07-02T00:44:12;20.40;71.40
57660;DHT22;43485;45.680;15.702;2023-07-02T00:46:39;20.40;71.60
57660;DHT22;43485;45.680;15.702;2023-07-02T00:49:05;20.40;71.80
57660;DHT22;43485;45.680;15.702;2023-07-02T00:51:31;20.40;71.60
57660;DHT22;43485;45.680;15.702;2023-07-02T00:53:57;20.30;71.70
57660;DHT22;43485;45.680;15.702;2023-07-02T00:56:25;20.30;71.70
57660;DHT22;43485;45.680;15.702;2023-07-02T00:58:53;20.30;71.50
57660;DHT22;43485;45.680;15.702;2023-07-02T01:01:25;20.30;71.50
57660;DHT22;43485;45.680;15.702;2023-07-02T01:04:12;20.30;71.50
57660;DHT22;43485;45.680;15.702;2023-07-02T01:06:38;20.30;71.70
57660;DHT22;43485;45.680;15.702;2023-07-02T01:09:23;20.30;71.80
57660;DHT22;43485;45.680;15.702;2023-07-02T01:12:09;20.20;71.60
57660;DHT22;43485;45.680;15.702;2023-07-02T01:14:54;20.20;71.30
57660;DHT22;43485;45.680;15.702;2023-07-02T01:17:23;20.20;71.70
57660;DHT22;43485;45.680;15.702;2023-07-02T01:22:36;20.30;71.80
57660;DHT22;43485;45.680;15.702;2023-07-02T01:25:03;20.20;71.60
57660;DHT22;43485;45.680;15.702;2023-07-02T01:27:29;20.20;71.20
57660;DHT22;43485;45.680;15.702;2023-07-02T01:29:56;20.20;71.30
57660;DHT22;43485;45.680;15.702;2023-07-02T01:32:22;20.20;72.00
57660;DHT22;43485;45.680;15.702;2023-07-02T01:34:49;20.10;72.10
57660;DHT22;43485;45.680;15.702;2023-07-02T01:37:19;20.10;72.00
57660;DHT22;43485;45.680;15.702;2023-07-02T01:39:45;20.10;72.10
57660;DHT22;43485;45.680;15.702;2023-07-02T01:42:11;20.10;71.90
57660;DHT22;43485;45.680;15.702;2023-07-02T01:44:41;20.10;71.90
57660;DHT22;43485;45.680;15.702;2023-07-02T01:47:08;20.10;71.70
57660;DHT22;43485;45.680;15.702;2023-07-02T01:49:34;20.10;71.90
57660;DHT22;43485;45.680;15.702;2023-07-02T01:52:02;20.10;71.90
57660;DHT22;43485;45.680;15.702;2023-07-02T01:54:29;20.10;71.30
57660;DHT22;43485;45.680;15.702;2023-07-02T01:56:56;20.20;71.80
57660;DHT22;43485;45.680;15.702;2023-07-02T01:59:22;20.10;71.30
57660;DHT22;43485;45.680;15.702;2023-07-02T02:01:49;20.10;72.10
57660;DHT22;43485;45.680;15.702;2023-07-02T02:04:15;20.10;72.10
57660;DHT22;43485;45.680;15.702;2023-07-02T02:06:41;20.10;71.40
57660;DHT22;43485;45.680;15.702;2023-07-02T02:09:08;20.10;71.80
57660;DHT22;43485;45.680;15.702;2023-07-02T02:14:22;20.10;71.90
57660;DHT22;43485;45.680;15.702;2023-07-02T02:16:48;20.20;72.10
57660;DHT22;43485;45.680;15.702;2023-07-02T02:19:14;20.10;71.90
57660;DHT22;43485;45.680;15.702;2023-07-02T02:21:41;20.10;71.90
57660;DHT22;43485;45.680;15.702;2023-07-02T02:24:07;20.10;71.80
57660;DHT22;43485;45.680;15.702;2023-07-02T02:26:34;20.10;72.00
57660;DHT22;43485;45.680;15.702;2023-07-02T02:29:01;20.10;71.90
57660;DHT22;43485;45.680;15.702;2023-07-02T02:31:27;20.10;72.00
57660;DHT22;43485;45.680;15.702;2023-07-02T02:33:54;20.10;71.40
57660;DHT22;43485;45.680;15.702;2023-07-02T02:36:19;20.10;71.90
57660;DHT22;43485;45.680;15.702;2023-07-02T02:38:46;20.10;71.90
57660;DHT22;43485;45.680;15.702;2023-07-02T02:41:12;20.10;71.80
57660;DHT22;43485;45.680;15.702;2023-07-02T02:43:41;20.10;71.90
57660;DHT22;43485;45.680;15.702;2023-07-02T02:46:09;20.10;71.80
57660;DHT22;43485;45.680;15.702;2023-07-02T02:48:53;20.00;71.90
57660;DHT22;43485;45.680;15.702;2023-07-02T02:51:20;20.00;72.10
57660;DHT22;43485;45.680;15.702;2023-07-02T02:53:46;20.10;72.10
57660;DHT22;43485;45.680;15.702;2023-07-02T02:56:12;20.10;72.00
57660;DHT22;43485;45.680;15.702;2023-07-02T02:58:38;20.10;72.10
57660;DHT22;43485;45.680;15.702;2023-07-02T03:01:04;20.10;72.10
57660;DHT22;43485;45.680;15.702;2023-07-02T03:06:20;20.00;72.80
57660;DHT22;43485;45.680;15.702;2023-07-02T03:08:46;19.90;73.20
57660;DHT22;43485;45.680;15.702;2023-07-02T03:11:12;19.90;73.30
57660;DHT22;43485;45.680;15.702;2023-07-02T03:13:38;19.90;73.10
57660;DHT22;43485;45.680;15.702;2023-07-02T03:16:04;19.90;73.00
57660;DHT22;43485;45.680;15.702;2023-07-02T03:18:31;19.90;72.80
57660;DHT22;43485;45.680;15.702;2023-07-02T03:21:00;19.90;72.20
57660;DHT22;43485;45.680;15.702;2023-07-02T03:23:26;19.90;72.50
57660;DHT22;43485;45.680;15.702;2023-07-02T03:25:52;19.90;73.20
57660;DHT22;43485;45.680;15.702;2023-07-02T03:28:18;19.90;72.90
57660;DHT22;43485;45.680;15.702;2023-07-02T03:30:44;19.90;72.90
57660;DHT22;43485;45.680;15.702;2023-07-02T03:33:10;19.90;72.90
57660;DHT22;43485;45.680;15.702;2023-07-02T03:35:36;19.90;72.90
57660;DHT22;43485;45.680;15.702;2023-07-02T03:38:04;20.00;72.60
57660;DHT22;43485;45.680;15.702;2023-07-02T03:40:31;20.00;72.50
57660;DHT22;43485;45.680;15.702;2023-07-02T03:42:57;20.00;71.90
57660;DHT22;43485;45.680;15.702;2023-07-02T03:45:23;20.00;72.50
57660;DHT22;43485;45.680;15.702;2023-07-02T03:47:49;20.10;72.40
57660;DHT22;43485;45.680;15.702;2023-07-02T03:50:15;20.10;72.50
57660;DHT22;43485;45.680;15.702;2023-07-02T03:52:41;20.10;72.30
57660;DHT22;43485;45.680;15.702;2023-07-02T03:55:08;20.10;72.30
57660;DHT22;43485;45.680;15.702;2023-07-02T03:57:34;20.20;71.70
57660;DHT22;43485;45.680;15.702;2023-07-02T04:00:00;20.20;72.20
57660;DHT22;43485;45.680;15.702;2023-07-02T04:02:26;20.20;72.20
57660;DHT22;43485;45.680;15.702;2023-07-02T04:04:52;20.20;72.20
57660;DHT22;43485;45.680;15.702;2023-07-02T04:07:18;20.20;72.30
57660;DHT22;43485;45.680;15.702;2023-07-02T04:09:43;20.20;72.00
57660;DHT22;43485;45.680;15.702;2023-07-02T04:12:10;20.30;73.30
57660;DHT22;43485;45.680;15.702;2023-07-02T04:14:35;20.30;72.30
57660;DHT22;43485;45.680;15.702;2023-07-02T04:17:02;20.30;72.40
57660;DHT22;43485;45.680;15.702;2023-07-02T04:19:46;20.30;72.10
57660;DHT22;43485;45.680;15.702;2023-07-02T04:22:12;20.40;72.00
57660;DHT22;43485;45.680;15.702;2023-07-02T04:24:38;20.40;72.10
57660;DHT22;43485;45.680;15.702;2023-07-02T04:27:04;20.40;71.90
57660;DHT22;43485;45.680;15.702;2023-07-02T04:29:31;20.50;71.30
57660;DHT22;43485;45.680;15.702;2023-07-02T04:31:57;20.50;71.80
57660;DHT22;43485;45.680;15.702;2023-07-02T04:34:23;20.60;71.90
57660;DHT22;43485;45.680;15.702;2023-07-02T04:36:49;20.60;71.40
57660;DHT22;43485;45.680;15.702;2023-07-02T04:39:15;20.70;71.60
57660;DHT22;43485;45.680;15.702;2023-07-02T04:41:41;20.70;71.70
57660;DHT22;43485;45.680;15.702;2023-07-02T04:44:07;20.80;71.40
57660;DHT22;43485;45.680;15.702;2023-07-02T04:46:34;20.80;71.40
57660;DHT22;43485;45.680;15.702;2023-07-02T04:49:00;20.80;71.40
57660;DHT22;43485;45.680;15.702;2023-07-02T04:51:26;20.80;71.70
57660;DHT22;43485;45.680;15.702;2023-07-02T04:53:52;20.80;72.10
57660;DHT22;43485;45.680;15.702;2023-07-02T04:56:18;20.80;72.80
57660;DHT22;43485;45.680;15.702;2023-07-02T04:58:44;20.80;72.70
57660;DHT22;43485;45.680;15.702;2023-07-02T05:01:10;20.80;72.60
57660;DHT22;43485;45.680;15.702;2023-07-02T05:03:37;20.90;72.20
57660;DHT22;43485;45.680;15.702;2023-07-02T05:06:03;21.00;72.00
57660;DHT22;43485;45.680;15.702;2023-07-02T05:08:29;21.00;71.50
57660;DHT22;43485;45.680;15.702;2023-07-02T05:10:55;21.10;71.20
57660;DHT22;43485;45.680;15.702;2023-07-02T05:13:21;21.10;71.30
57660;DHT22;43485;45.680;15.702;2023-07-02T05:15:47;21.20;71.30
57660;DHT22;43485;45.680;15.702;2023-07-02T05:18:14;21.30;70.90
57660;DHT22;43485;45.680;15.702;2023-07-02T05:20:40;21.40;70.60
57660;DHT22;43485;45.680;15.702;2023-07-02T05:23:06;21.50;70.90
57660;DHT22;43485;45.680;15.702;2023-07-02T05:25:32;21.60;70.40
57660;DHT22;43485;45.680;15.702;2023-07-02T05:27:59;21.60;70.70
57660;DHT22;43485;45.680;15.702;2023-07-02T05:30:25;21.60;70.10
57660;DHT22;43485;45.680;15.702;2023-07-02T05:32:51;21.60;70.40
57660;DHT22;43485;45.680;15.702;2023-07-02T05:35:17;21.60;70.90
57660;DHT22;43485;45.680;15.702;2023-07-02T05:37:43;21.60;70.60
57660;DHT22;43485;45.680;15.702;2023-07-02T05:40:11;21.60;70.90
57660;DHT22;43485;45.680;15.702;2023-07-02T05:42:37;21.60;70.60
57660;DHT22;43485;45.680;15.702;2023-07-02T05:45:03;21.60;70.70
57660;DHT22;43485;45.680;15.702;2023-07-02T05:47:29;21.50;70.30
57660;DHT22;43485;45.680;15.702;2023-07-02T05:49:55;21.50;71.00
57660;DHT22;43485;45.680;15.702;2023-07-02T05:52:21;21.40;71.10
57660;DHT22;43485;45.680;15.702;2023-07-02T05:54:48;21.40;70.90
57660;DHT22;43485;45.680;15.702;2023-07-02T05:57:14;21.50;71.00
57660;DHT22;43485;45.680;15.702;2023-07-02T05:59:40;21.50;71.10
57660;DHT22;43485;45.680;15.702;2023-07-02T06:02:06;21.50;70.90
57660;DHT22;43485;45.680;15.702;2023-07-02T06:04:32;21.60;70.90
57660;DHT22;43485;45.680;15.702;2023-07-02T06:06:58;21.60;70.60
57660;DHT22;43485;45.680;15.702;2023-07-02T06:09:23;21.70;70.90
57660;DHT22;43485;45.680;15.702;2023-07-02T06:11:49;21.70;70.80
57660;DHT22;43485;45.680;15.702;2023-07-02T06:14:16;21.80;70.30
57660;DHT22;43485;45.680;15.702;2023-07-02T06:16:42;21.70;70.60
57660;DHT22;43485;45.680;15.702;2023-07-02T06:19:08;21.70;70.60
57660;DHT22;43485;45.680;15.702;2023-07-02T06:21:34;21.70;70.70
57660;DHT22;43485;45.680;15.702;2023-07-02T06:24:01;21.70;70.90
57660;DHT22;43485;45.680;15.702;2023-07-02T06:26:27;21.70;70.80
57660;DHT22;43485;45.680;15.702;2023-07-02T06:28:53;21.70;71.10
57660;DHT22;43485;45.680;15.702;2023-07-02T06:31:19;21.70;71.30
57660;DHT22;43485;45.680;15.702;2023-07-02T06:33:45;21.90;70.50
57660;DHT22;43485;45.680;15.702;2023-07-02T06:36:12;22.10;70.10
57660;DHT22;43485;45.680;15.702;2023-07-02T06:38:40;22.20;69.90
57660;DHT22;43485;45.680;15.702;2023-07-02T06:41:06;22.30;68.80
57660;DHT22;43485;45.680;15.702;2023-07-02T06:43:32;22.60;68.60
57660;DHT22;43485;45.680;15.702;2023-07-02T06:45:58;22.80;68.60
57660;DHT22;43485;45.680;15.702;2023-07-02T06:48:24;22.90;67.90
57660;DHT22;43485;45.680;15.702;2023-07-02T06:50:50;22.90;68.30
57660;DHT22;43485;45.680;15.702;2023-07-02T06:53:16;23.00;68.30
57660;DHT22;43485;45.680;15.702;2023-07-02T06:55:42;23.10;67.50
57660;DHT22;43485;45.680;15.702;2023-07-02T06:58:08;23.00;67.20
57660;DHT22;43485;45.680;15.702;2023-07-02T07:00:34;23.10;67.00
57660;DHT22;43485;45.680;15.702;2023-07-02T07:03:20;23.30;67.00
57660;DHT22;43485;45.680;15.702;2023-07-02T07:05:46;23.30;66.30
57660;DHT22;43485;45.680;15.702;2023-07-02T07:08:12;23.30;65.80
57660;DHT22;43485;45.680;15.702;2023-07-02T07:10:39;23.50;66.40
57660;DHT22;43485;45.680;15.702;2023-07-02T07:13:05;23.60;65.70
57660;DHT22;43485;45.680;15.702;2023-07-02T07:15:33;23.80;65.10
57660;DHT22;43485;45.680;15.702;2023-07-02T07:18:01;23.90;64.60
57660;DHT22;43485;45.680;15.702;2023-07-02T07:20:27;24.00;64.10
57660;DHT22;43485;45.680;15.702;2023-07-02T07:22:53;24.00;64.40
57660;DHT22;43485;45.680;15.702;2023-07-02T07:25:19;24.10;64.40
57660;DHT22;43485;45.680;15.702;2023-07-02T07:27:45;24.20;63.90
57660;DHT22;43485;45.680;15.702;2023-07-02T07:30:12;24.20;63.30
57660;DHT22;43485;45.680;15.702;2023-07-02T07:32:40;24.20;63.10
57660;DHT22;43485;45.680;15.702;2023-07-02T07:35:07;24.20;61.60
57660;DHT22;43485;45.680;15.702;2023-07-02T07:37:33;24.30;62.10
57660;DHT22;43485;45.680;15.702;2023-07-02T07:39:59;24.40;62.10
57660;DHT22;43485;45.680;15.702;2023-07-02T07:42:25;24.50;62.10
57660;DHT22;43485;45.680;15.702;2023-07-02T07:44:51;24.70;62.40
57660;DHT22;43485;45.680;15.702;2023-07-02T07:47:18;24.80;61.70
57660;DHT22;43485;45.680;15.702;2023-07-02T07:49:45;24.90;60.80
57660;DHT22;43485;45.680;15.702;2023-07-02T07:52:11;25.00;61.10
57660;DHT22;43485;45.680;15.702;2023-07-02T07:54:38;25.20;61.20
57660;DHT22;43485;45.680;15.702;2023-07-02T07:57:04;25.20;60.30
57660;DHT22;43485;45.680;15.702;2023-07-02T07:59:31;25.30;60.50
57660;DHT22;43485;45.680;15.702;2023-07-02T08:01:57;25.40;60.60
57660;DHT22;43485;45.680;15.702;2023-07-02T08:04:23;25.40;59.50
57660;DHT22;43485;45.680;15.702;2023-07-02T08:06:49;25.50;59.10
57660;DHT22;43485;45.680;15.702;2023-07-02T08:09:15;25.50;58.60
57660;DHT22;43485;45.680;15.702;2023-07-02T08:11:41;25.50;57.50
57660;DHT22;43485;45.680;15.702;2023-07-02T08:14:07;25.60;58.40
57660;DHT22;43485;45.680;15.702;2023-07-02T08:16:33;25.70;57.90
57660;DHT22;43485;45.680;15.702;2023-07-02T08:19:01;25.80;57.80
57660;DHT22;43485;45.680;15.702;2023-07-02T08:21:27;26.00;58.00
57660;DHT22;43485;45.680;15.702;2023-07-02T08:23:53;26.10;57.90
57660;DHT22;43485;45.680;15.702;2023-07-02T08:26:19;26.10;57.00
57660;DHT22;43485;45.680;15.702;2023-07-02T08:28:45;26.10;57.10
57660;DHT22;43485;45.680;15.702;2023-07-02T08:31:11;26.20;56.30
57660;DHT22;43485;45.680;15.702;2023-07-02T08:33:37;26.20;56.90
57660;DHT22;43485;45.680;15.702;2023-07-02T08:36:03;26.20;56.30
57660;DHT22;43485;45.680;15.702;2023-07-02T08:38:30;26.30;56.20
57660;DHT22;43485;45.680;15.702;2023-07-02T08:40:56;26.30;57.00
57660;DHT22;43485;45.680;15.702;2023-07-02T08:43:24;26.30;56.30
57660;DHT22;43485;45.680;15.702;2023-07-02T08:45:52;26.40;54.60
57660;DHT22;43485;45.680;15.702;2023-07-02T08:48:19;26.50;54.50
57660;DHT22;43485;45.680;15.702;2023-07-02T08:50:49;26.60;54.70
57660;DHT22;43485;45.680;15.702;2023-07-02T08:53:16;26.70;54.40
57660;DHT22;43485;45.680;15.702;2023-07-02T08:55:42;26.90;54.40
57660;DHT22;43485;45.680;15.702;2023-07-02T08:58:08;27.00;55.20
57660;DHT22;43485;45.680;15.702;2023-07-02T09:00:34;27.10;55.10
57660;DHT22;43485;45.680;15.702;2023-07-02T09:03:21;27.20;51.20
57660;DHT22;43485;45.680;15.702;2023-07-02T09:06:06;27.10;50.90
57660;DHT22;43485;45.680;15.702;2023-07-02T09:08:33;27.20;51.60
57660;DHT22;43485;45.680;15.702;2023-07-02T09:13:54;27.40;51.00
57660;DHT22;43485;45.680;15.702;2023-07-02T09:16:26;27.50;51.40
57660;DHT22;43485;45.680;15.702;2023-07-02T09:19:12;27.60;50.00
57660;DHT22;43485;45.680;15.702;2023-07-02T09:21:58;27.60;50.40
57660;DHT22;43485;45.680;15.702;2023-07-02T09:24:30;27.70;49.60
57660;DHT22;43485;45.680;15.702;2023-07-02T09:27:17;27.80;49.30
57660;DHT22;43485;45.680;15.702;2023-07-02T09:29:50;28.10;50.20
57660;DHT22;43485;45.680;15.702;2023-07-02T09:32:39;28.50;47.30
57660;DHT22;43485;45.680;15.702;2023-07-02T09:35:06;28.80;47.00
57660;DHT22;43485;45.680;15.702;2023-07-02T09:37:32;29.10;46.60
57660;DHT22;43485;45.680;15.702;2023-07-02T09:39:59;29.40;45.30
57660;DHT22;43485;45.680;15.702;2023-07-02T09:42:28;29.70;42.70
57660;DHT22;43485;45.680;15.702;2023-07-02T09:44:55;30.50;42.50
57660;DHT22;43485;45.680;15.702;2023-07-02T09:47:25;31.20;39.00
57660;DHT22;43485;45.680;15.702;2023-07-02T09:50:10;31.80;39.00
57660;DHT22;43485;45.680;15.702;2023-07-02T09:52:38;32.80;37.50
57660;DHT22;43485;45.680;15.702;2023-07-02T09:55:05;33.50;34.00
57660;DHT22;43485;45.680;15.702;2023-07-02T09:57:32;34.30;35.20
57660;DHT22;43485;45.680;15.702;2023-07-02T10:00:00;35.10;32.70
57660;DHT22;43485;45.680;15.702;2023-07-02T10:02:28;35.90;32.00
57660;DHT22;43485;45.680;15.702;2023-07-02T10:04:55;36.70;31.20
57660;DHT22;43485;45.680;15.702;2023-07-02T10:07:41;37.50;31.40
57660;DHT22;43485;45.680;15.702;2023-07-02T10:10:07;38.40;29.40
57660;DHT22;43485;45.680;15.702;2023-07-02T10:12:33;39.10;27.70
57660;DHT22;43485;45.680;15.702;2023-07-02T10:14:59;39.60;25.60
57660;DHT22;43485;45.680;15.702;2023-07-02T10:17:53;39.50;26.20
57660;DHT22;43485;45.680;15.702;2023-07-02T10:20:40;40.40;26.80
57660;DHT22;43485;45.680;15.702;2023-07-02T10:23:08;40.90;24.40
57660;DHT22;43485;45.680;15.702;2023-07-02T10:25:37;41.20;22.70
57660;DHT22;43485;45.680;15.702;2023-07-02T10:28:23;41.50;22.70
57660;DHT22;43485;45.680;15.702;2023-07-02T10:30:52;41.70;22.00
57660;DHT22;43485;45.680;15.702;2023-07-02T10:33:19;42.10;22.40
57660;DHT22;43485;45.680;15.702;2023-07-02T10:35:47;42.20;21.60
57660;DHT22;43485;45.680;15.702;2023-07-02T10:41:00;42.80;21.50
57660;DHT22;43485;45.680;15.702;2023-07-02T10:43:27;43.10;22.30
57660;DHT22;43485;45.680;15.702;2023-07-02T10:45:54;44.00;21.00
57660;DHT22;43485;45.680;15.702;2023-07-02T10:48:20;44.50;20.30
57660;DHT22;43485;45.680;15.702;2023-07-02T10:50:46;45.20;20.10
57660;DHT22;43485;45.680;15.702;2023-07-02T10:53:32;46.00;19.50
57660;DHT22;43485;45.680;15.702;2023-07-02T10:55:58;46.70;19.50
57660;DHT22;43485;45.680;15.702;2023-07-02T10:58:25;47.20;18.40
57660;DHT22;43485;45.680;15.702;2023-07-02T11:00:51;47.50;17.50
57660;DHT22;43485;45.680;15.702;2023-07-02T11:03:18;47.70;17.20
57660;DHT22;43485;45.680;15.702;2023-07-02T11:05:46;47.90;16.10
57660;DHT22;43485;45.680;15.702;2023-07-02T11:08:13;48.10;16.30
57660;DHT22;43485;45.680;15.702;2023-07-02T11:10:39;48.60;17.10
57660;DHT22;43485;45.680;15.702;2023-07-02T11:15:39;49.30;16.90
57660;DHT22;43485;45.680;15.702;2023-07-02T11:18:29;49.50;15.40
57660;DHT22;43485;45.680;15.702;2023-07-02T11:20:56;50.10;15.10
57660;DHT22;43485;45.680;15.702;2023-07-02T11:23:24;49.80;15.10
57660;DHT22;43485;45.680;15.702;2023-07-02T11:26:11;49.90;15.00
57660;DHT22;43485;45.680;15.702;2023-07-02T11:28:48;49.60;15.70
57660;DHT22;43485;45.680;15.702;2023-07-02T11:31:24;47.70;16.30
57660;DHT22;43485;45.680;15.702;2023-07-02T11:33:51;46.00;17.50
57660;DHT22;43485;45.680;15.702;2023-07-02T11:36:36;46.70;16.70
57660;DHT22;43485;45.680;15.702;2023-07-02T11:39:02;47.20;16.00
57660;DHT22;43485;45.680;15.702;2023-07-02T11:41:37;47.70;15.00
57660;DHT22;43485;45.680;15.702;2023-07-02T11:44:23;47.70;15.40
57660;DHT22;43485;45.680;15.702;2023-07-02T11:46:50;47.80;15.30
57660;DHT22;43485;45.680;15.702;2023-07-02T11:49:16;48.80;15.30
57660;DHT22;43485;45.680;15.702;2023-07-02T11:51:43;49.40;13.90
57660;DHT22;43485;45.680;15.702;2023-07-02T11:54:14;49.10;14.40
57660;DHT22;43485;45.680;15.702;2023-07-02T11:56:41;50.00;14.90
57660;DHT22;43485;45.680;15.702;2023-07-02T11:59:08;50.70;13.30
57660;DHT22;43485;45.680;15.702;2023-07-02T12:01:34;51.50;14.00
57660;DHT22;43485;45.680;15.702;2023-07-02T12:04:01;52.20;14.00
57660;DHT22;43485;45.680;15.702;2023-07-02T12:06:27;51.80;12.80
57660;DHT22;43485;45.680;15.702;2023-07-02T12:08:53;49.90;14.40
57660;DHT22;43485;45.680;15.702;2023-07-02T12:11:19;50.30;13.90
57660;DHT22;43485;45.680;15.702;2023-07-02T12:13:45;50.90;13.60
57660;DHT22;43485;45.680;15.702;2023-07-02T12:16:11;51.50;13.70
57660;DHT22;43485;45.680;15.702;2023-07-02T12:18:37;51.60;12.80
57660;DHT22;43485;45.680;15.702;2023-07-02T12:21:03;51.20;12.30
57660;DHT22;43485;45.680;15.702;2023-07-02T12:23:29;50.90;13.10
57660;DHT22;43485;45.680;15.702;2023-07-02T12:25:56;51.40;13.40
57660;DHT22;43485;45.680;15.702;2023-07-02T12:28:22;51.40;12.80
57660;DHT22;43485;45.680;15.702;2023-07-02T12:30:48;51.40;13.30
57660;DHT22;43485;45.680;15.702;2023-07-02T12:33:14;51.80;11.90
57660;DHT22;43485;45.680;15.702;2023-07-02T12:35:41;51.50;12.30
57660;DHT22;43485;45.680;15.702;2023-07-02T12:38:07;51.40;12.60
57660;DHT22;43485;45.680;15.702;2023-07-02T12:40:34;51.70;12.70
57660;DHT22;43485;45.680;15.702;2023-07-02T12:43:00;51.80;12.60
57660;DHT22;43485;45.680;15.702;2023-07-02T12:45:26;51.70;12.40
57660;DHT22;43485;45.680;15.702;2023-07-02T12:47:52;51.70;12.80
57660;DHT22;43485;45.680;15.702;2023-07-02T12:50:19;51.80;12.70
57660;DHT22;43485;45.680;15.702;2023-07-02T12:52:45;51.90;13.20
57660;DHT22;43485;45.680;15.702;2023-07-02T12:55:11;51.60;12.40
57660;DHT22;43485;45.680;15.702;2023-07-02T12:57:37;50.60;12.40
57660;DHT22;43485;45.680;15.702;2023-07-02T13:00:04;50.20;13.50
57660;DHT22;43485;45.680;15.702;2023-07-02T13:02:50;50.10;13.50
57660;DHT22;43485;45.680;15.702;2023-07-02T13:05:16;49.80;13.90
57660;DHT22;43485;45.680;15.702;2023-07-02T13:07:43;49.20;15.00
57660;DHT22;43485;45.680;15.702;2023-07-02T13:10:09;48.50;15.70
57660;DHT22;43485;45.680;15.702;2023-07-02T13:12:35;47.50;15.80
57660;DHT22;43485;45.680;15.702;2023-07-02T13:15:01;45.50;16.80
57660;DHT22;43485;45.680;15.702;2023-07-02T13:17:28;43.90;18.10
57660;DHT22;43485;45.680;15.702;2023-07-02T13:19:54;42.90;19.10
57660;DHT22;43485;45.680;15.702;2023-07-02T13:22:21;41.90;19.50
57660;DHT22;43485;45.680;15.702;2023-07-02T13:24:47;41.00;21.10
57660;DHT22;43485;45.680;15.702;2023-07-02T13:27:15;40.50;21.60
57660;DHT22;43485;45.680;15.702;2023-07-02T13:29:42;39.70;21.60
57660;DHT22;43485;45.680;15.702;2023-07-02T13:32:08;39.20;22.80
57660;DHT22;43485;45.680;15.702;2023-07-02T13:34:34;38.60;22.80
57660;DHT22;43485;45.680;15.702;2023-07-02T13:37:00;38.30;23.40
57660;DHT22;43485;45.680;15.702;2023-07-02T13:39:28;38.10;24.10
57660;DHT22;43485;45.680;15.702;2023-07-02T13:41:55;38.00;23.60
57660;DHT22;43485;45.680;15.702;2023-07-02T13:44:21;37.80;24.20
57660;DHT22;43485;45.680;15.702;2023-07-02T13:46:48;37.50;24.60
57660;DHT22;43485;45.680;15.702;2023-07-02T13:49:15;37.40;24.90
57660;DHT22;43485;45.680;15.702;2023-07-02T13:51:41;37.20;25.30
57660;DHT22;43485;45.680;15.702;2023-07-02T13:54:09;37.20;25.20
57660;DHT22;43485;45.680;15.702;2023-07-02T13:56:37;36.90;24.70
57660;DHT22;43485;45.680;15.702;2023-07-02T13:59:04;36.60;25.90
57660;DHT22;43485;45.680;15.702;2023-07-02T14:01:30;36.50;26.10
57660;DHT22;43485;45.680;15.702;2023-07-02T14:03:57;36.40;26.30
57660;DHT22;43485;45.680;15.702;2023-07-02T14:06:24;36.20;26.90
57660;DHT22;43485;45.680;15.702;2023-07-02T14:08:50;36.10;27.20
57660;DHT22;43485;45.680;15.702;2023-07-02T14:11:16;35.80;27.10
57660;DHT22;43485;45.680;15.702;2023-07-02T14:13:43;35.30;27.10
57660;DHT22;43485;45.680;15.702;2023-07-02T14:16:09;35.30;27.70
57660;DHT22;43485;45.680;15.702;2023-07-02T14:18:35;35.40;27.90
57660;DHT22;43485;45.680;15.702;2023-07-02T14:21:01;35.30;27.20
57660;DHT22;43485;45.680;15.702;2023-07-02T14:23:28;35.30;27.10
57660;DHT22;43485;45.680;15.702;2023-07-02T14:25:54;35.30;27.00
57660;DHT22;43485;45.680;15.702;2023-07-02T14:28:20;35.20;27.00
57660;DHT22;43485;45.680;15.702;2023-07-02T14:30:46;35.20;27.10
57660;DHT22;43485;45.680;15.702;2023-07-02T14:33:14;34.90;27.00
57660;DHT22;43485;45.680;15.702;2023-07-02T14:35:40;34.80;27.40
57660;DHT22;43485;45.680;15.702;2023-07-02T14:38:06;34.80;27.90
57660;DHT22;43485;45.680;15.702;2023-07-02T14:40:32;34.60;27.20
57660;DHT22;43485;45.680;15.702;2023-07-02T14:42:58;34.30;27.30
57660;DHT22;43485;45.680;15.702;2023-07-02T14:45:24;34.20;28.20
57660;DHT22;43485;45.680;15.702;2023-07-02T14:47:50;34.00;28.10
57660;DHT22;43485;45.680;15.702;2023-07-02T14:50:16;34.00;28.40
57660;DHT22;43485;45.680;15.702;2023-07-02T14:52:42;33.90;27.70
57660;DHT22;43485;45.680;15.702;2023-07-02T14:55:08;34.00;28.40
57660;DHT22;43485;45.680;15.702;2023-07-02T14:57:34;34.10;28.20
57660;DHT22;43485;45.680;15.702;2023-07-02T15:00:00;34.00;28.50
57660;DHT22;43485;45.680;15.702;2023-07-02T15:02:27;34.00;27.80
57660;DHT22;43485;45.680;15.702;2023-07-02T15:04:53;34.00;28.00
57660;DHT22;43485;45.680;15.702;2023-07-02T15:07:19;33.90;28.20
57660;DHT22;43485;45.680;15.702;2023-07-02T15:09:46;33.70;28.50
57660;DHT22;43485;45.680;15.702;2023-07-02T15:12:12;33.60;28.00
57660;DHT22;43485;45.680;15.702;2023-07-02T15:14:38;33.50;28.40
57660;DHT22;43485;45.680;15.702;2023-07-02T15:17:04;33.40;29.30
57660;DHT22;43485;45.680;15.702;2023-07-02T15:19:30;33.30;29.60
57660;DHT22;43485;45.680;15.702;2023-07-02T15:21:56;33.30;28.70
57660;DHT22;43485;45.680;15.702;2023-07-02T15:24:22;33.30;29.80
57660;DHT22;43485;45.680;15.702;2023-07-02T15:26:48;33.10;29.20
57660;DHT22;43485;45.680;15.702;2023-07-02T15:29:14;33.20;28.80
57660;DHT22;43485;45.680;15.702;2023-07-02T15:31:40;33.30;29.00
57660;DHT22;43485;45.680;15.702;2023-07-02T15:34:11;33.30;28.20